RYR205 EGLL-LFPG
Flight info
| Callsign | RYR205 |
|---|---|
| Flight time | 0h 40m |
| Altitude | 25000 |
| Route | MODMI M185 MID UL612 BOGNA DCT HARDY UM605 BIBAX |
| Aircraft | B738/M-SDE2E3FGHIRWXY/LB1 |
Departure
| Time | 2026-05-05 19:56 |
|---|---|
| Airport | London Heathrow Airport (EGLL) |
Arrival
| Time | 2026-05-05 20:36 |
|---|---|
| Airport | Charles de Gaulle International Airport (LFPG) |
| Time | Latitude | Longitude | Altitude | Speed | Heading |
|---|---|---|---|---|---|
| 2026-05-05 19:16 | 51.47319 | -0.47514 | 91 ft | 0 kts | 271° |
| 2026-05-05 19:33 | 51.47319 | -0.47501 | 90 ft | 2 kts | 270° |
| 2026-05-05 19:33 | 51.47319 | -0.47474 | 90 ft | 2 kts | 271° |
| 2026-05-05 19:34 | 51.47318 | -0.47448 | 90 ft | 2 kts | 272° |
| 2026-05-05 19:34 | 51.47320 | -0.47422 | 90 ft | 2 kts | 250° |
| 2026-05-05 19:34 | 51.47327 | -0.47398 | 90 ft | 2 kts | 242° |
| 2026-05-05 19:35 | 51.47346 | -0.47358 | 91 ft | 1 kts | 205° |
| 2026-05-05 19:35 | 51.47349 | -0.47355 | 91 ft | 0 kts | 189° |
| 2026-05-05 19:47 | 51.47333 | -0.47355 | 90 ft | 7 kts | 178° |
| 2026-05-05 19:48 | 51.47246 | -0.47353 | 88 ft | 18 kts | 180° |
| 2026-05-05 19:48 | 51.47097 | -0.47351 | 86 ft | 22 kts | 180° |
| 2026-05-05 19:48 | 51.46946 | -0.47351 | 87 ft | 22 kts | 180° |
| 2026-05-05 19:48 | 51.46796 | -0.47348 | 86 ft | 21 kts | 177° |
| 2026-05-05 19:49 | 51.46674 | -0.47363 | 90 ft | 16 kts | 214° |
| 2026-05-05 19:49 | 51.46655 | -0.47469 | 85 ft | 15 kts | 270° |
| 2026-05-05 19:49 | 51.46655 | -0.47693 | 85 ft | 15 kts | 269° |
| 2026-05-05 19:49 | 51.46654 | -0.47851 | 87 ft | 14 kts | 270° |
| 2026-05-05 19:50 | 51.46652 | -0.48003 | 89 ft | 13 kts | 269° |
| 2026-05-05 19:50 | 51.46652 | -0.48030 | 90 ft | 0 kts | 270° |
| 2026-05-05 19:50 | 51.46652 | -0.48044 | 90 ft | 7 kts | 270° |
| 2026-05-05 19:51 | 51.46652 | -0.48221 | 92 ft | 24 kts | 270° |
| 2026-05-05 19:51 | 51.46650 | -0.48483 | 94 ft | 23 kts | 269° |
| 2026-05-05 19:51 | 51.46637 | -0.48730 | 92 ft | 22 kts | 234° |
| 2026-05-05 19:51 | 51.46607 | -0.48761 | 94 ft | 0 kts | 199° |
| 2026-05-05 19:53 | 51.46606 | -0.48761 | 90 ft | 0 kts | 199° |
| 2026-05-05 19:54 | 51.46568 | -0.48781 | 90 ft | 13 kts | 194° |
| 2026-05-05 19:54 | 51.46480 | -0.48701 | 92 ft | 18 kts | 106° |
| 2026-05-05 19:54 | 51.46479 | -0.48652 | 92 ft | 0 kts | 89° |
| 2026-05-05 19:55 | 51.46481 | -0.48435 | 93 ft | 53 kts | 89° |
| 2026-05-05 19:55 | 51.46483 | -0.47423 | 89 ft | 126 kts | 89° |
| 2026-05-05 19:56 | 51.46506 | -0.45713 | 230 ft | 170 kts | 86° |
| 2026-05-05 19:56 | 51.46510 | -0.43762 | 949 ft | 181 kts | 89° |
| 2026-05-05 19:56 | 51.46468 | -0.41748 | 1932 ft | 177 kts | 91° |
| 2026-05-05 19:56 | 51.46313 | -0.39816 | 2918 ft | 179 kts | 109° |
| 2026-05-05 19:57 | 51.45586 | -0.38148 | 3710 ft | 186 kts | 127° |
| 2026-05-05 19:57 | 51.44943 | -0.37210 | 4194 ft | 195 kts | 150° |
| 2026-05-05 19:57 | 51.43164 | -0.36539 | 5258 ft | 200 kts | 160° |
| 2026-05-05 19:57 | 51.41864 | -0.35716 | 5871 ft | 211 kts | 157° |
| 2026-05-05 19:58 | 51.40366 | -0.35383 | 5973 ft | 227 kts | 192° |
| 2026-05-05 19:58 | 51.38788 | -0.36138 | 6018 ft | 245 kts | 203° |
| 2026-05-05 19:58 | 51.37254 | -0.37349 | 6015 ft | 248 kts | 209° |
| 2026-05-05 19:58 | 51.35730 | -0.38653 | 6020 ft | 248 kts | 209° |
| 2026-05-05 19:59 | 51.34207 | -0.39936 | 6021 ft | 247 kts | 208° |
| 2026-05-05 19:59 | 51.32684 | -0.41198 | 6001 ft | 247 kts | 208° |
| 2026-05-05 19:59 | 51.31151 | -0.42441 | 6021 ft | 247 kts | 207° |
| 2026-05-05 19:59 | 51.29605 | -0.43656 | 6003 ft | 248 kts | 207° |
| 2026-05-05 20:00 | 51.28578 | -0.44459 | 6030 ft | 250 kts | 207° |
| 2026-05-05 20:00 | 51.26347 | -0.46226 | 6066 ft | 287 kts | 207° |
| 2026-05-05 20:00 | 51.24561 | -0.47661 | 6032 ft | 293 kts | 207° |
| 2026-05-05 20:00 | 51.22734 | -0.49122 | 6010 ft | 296 kts | 207° |
| 2026-05-05 20:01 | 51.20874 | -0.50570 | 6401 ft | 294 kts | 206° |
| 2026-05-05 20:01 | 51.19025 | -0.51996 | 7301 ft | 297 kts | 207° |
| 2026-05-05 20:01 | 51.17153 | -0.53439 | 8188 ft | 301 kts | 207° |
| 2026-05-05 20:01 | 51.15259 | -0.54900 | 9099 ft | 304 kts | 207° |
| 2026-05-05 20:02 | 51.13353 | -0.56372 | 10011 ft | 306 kts | 207° |
| 2026-05-05 20:02 | 51.11435 | -0.57851 | 10856 ft | 307 kts | 207° |
| 2026-05-05 20:02 | 51.10161 | -0.58833 | 11430 ft | 307 kts | 206° |
| 2026-05-05 20:02 | 51.08235 | -0.60315 | 12318 ft | 308 kts | 206° |
| 2026-05-05 20:03 | 51.05511 | -0.61347 | 13496 ft | 307 kts | 174° |
| 2026-05-05 20:03 | 51.04107 | -0.60884 | 14094 ft | 305 kts | 159° |
| 2026-05-05 20:03 | 51.01696 | -0.58702 | 15225 ft | 300 kts | 146° |
| 2026-05-05 20:03 | 50.99978 | -0.56856 | 16081 ft | 297 kts | 145° |
| 2026-05-05 20:04 | 50.98287 | -0.55015 | 16979 ft | 293 kts | 144° |
| 2026-05-05 20:04 | 50.97181 | -0.53813 | 17569 ft | 289 kts | 145° |
| 2026-05-05 20:04 | 50.95536 | -0.52034 | 18461 ft | 283 kts | 145° |
| 2026-05-05 20:04 | 50.93926 | -0.50303 | 19266 ft | 275 kts | 145° |
| 2026-05-05 20:05 | 50.92365 | -0.48633 | 20076 ft | 266 kts | 146° |
| 2026-05-05 20:05 | 50.90815 | -0.46980 | 20531 ft | 275 kts | 146° |
| 2026-05-05 20:05 | 50.89187 | -0.45248 | 20833 ft | 287 kts | 146° |
| 2026-05-05 20:05 | 50.86955 | -0.42879 | 21388 ft | 297 kts | 146° |
| 2026-05-05 20:06 | 50.85783 | -0.41637 | 21664 ft | 303 kts | 146° |
| 2026-05-05 20:06 | 50.84006 | -0.39755 | 22089 ft | 311 kts | 146° |
| 2026-05-05 20:06 | 50.82181 | -0.37825 | 22507 ft | 320 kts | 146° |
| 2026-05-05 20:06 | 50.80337 | -0.35876 | 22922 ft | 327 kts | 146° |
| 2026-05-05 20:07 | 50.78429 | -0.33862 | 23348 ft | 332 kts | 146° |
| 2026-05-05 20:07 | 50.76490 | -0.31818 | 23731 ft | 337 kts | 146° |
| 2026-05-05 20:07 | 50.74529 | -0.29753 | 24090 ft | 341 kts | 146° |
| 2026-05-05 20:07 | 50.72543 | -0.27660 | 24450 ft | 345 kts | 145° |
| 2026-05-05 20:08 | 50.70711 | -0.25184 | 24801 ft | 349 kts | 132° |
| 2026-05-05 20:08 | 50.69211 | -0.22106 | 24929 ft | 362 kts | 121° |
| 2026-05-05 20:08 | 50.68022 | -0.18530 | 24963 ft | 376 kts | 116° |
| 2026-05-05 20:08 | 50.66870 | -0.14737 | 24959 ft | 390 kts | 115° |
| 2026-05-05 20:09 | 50.65697 | -0.10803 | 24953 ft | 404 kts | 115° |
| 2026-05-05 20:09 | 50.64494 | -0.06794 | 24956 ft | 416 kts | 115° |
| 2026-05-05 20:09 | 50.63231 | -0.02626 | 24956 ft | 427 kts | 115° |
| 2026-05-05 20:09 | 50.61923 | 0.01648 | 24953 ft | 438 kts | 115° |
| 2026-05-05 20:10 | 50.60579 | 0.06006 | 24948 ft | 447 kts | 115° |
| 2026-05-05 20:10 | 50.59202 | 0.10448 | 24945 ft | 456 kts | 115° |
| 2026-05-05 20:10 | 50.57797 | 0.14965 | 24943 ft | 463 kts | 115° |
| 2026-05-05 20:10 | 50.56263 | 0.19471 | 24933 ft | 471 kts | 122° |
| 2026-05-05 20:11 | 50.54232 | 0.23561 | 24925 ft | 478 kts | 132° |
| 2026-05-05 20:11 | 50.51918 | 0.27319 | 24932 ft | 480 kts | 134° |
| 2026-05-05 20:11 | 50.49607 | 0.31047 | 24920 ft | 472 kts | 134° |
| 2026-05-05 20:11 | 50.47322 | 0.34730 | 24920 ft | 468 kts | 133° |
| 2026-05-05 20:12 | 50.45083 | 0.38335 | 24930 ft | 468 kts | 134° |
| 2026-05-05 20:12 | 50.42811 | 0.41990 | 24932 ft | 468 kts | 134° |
| 2026-05-05 20:12 | 50.40533 | 0.45647 | 24936 ft | 468 kts | 133° |
| 2026-05-05 20:12 | 50.38260 | 0.49291 | 24934 ft | 468 kts | 134° |
| 2026-05-05 20:13 | 50.35986 | 0.52934 | 24926 ft | 467 kts | 133° |
| 2026-05-05 20:13 | 50.33718 | 0.56563 | 24919 ft | 466 kts | 134° |
| 2026-05-05 20:13 | 50.31449 | 0.60186 | 24920 ft | 465 kts | 134° |
| 2026-05-05 20:13 | 50.29186 | 0.63797 | 24918 ft | 465 kts | 134° |
| 2026-05-05 20:14 | 50.26953 | 0.67353 | 24921 ft | 464 kts | 134° |
| 2026-05-05 20:14 | 50.24694 | 0.70946 | 24921 ft | 464 kts | 134° |
| 2026-05-05 20:14 | 50.22433 | 0.74537 | 24918 ft | 463 kts | 134° |
| 2026-05-05 20:14 | 50.20172 | 0.78122 | 24917 ft | 463 kts | 134° |
| 2026-05-05 20:15 | 50.17909 | 0.81705 | 24921 ft | 463 kts | 133° |
| 2026-05-05 20:15 | 50.15648 | 0.85281 | 24922 ft | 463 kts | 133° |
| 2026-05-05 20:15 | 50.13395 | 0.88840 | 24907 ft | 458 kts | 133° |
| 2026-05-05 20:15 | 50.11207 | 0.92291 | 24897 ft | 437 kts | 134° |
| 2026-05-05 20:16 | 50.09120 | 0.95578 | 24883 ft | 415 kts | 134° |
| 2026-05-05 20:16 | 50.07143 | 0.98685 | 24893 ft | 394 kts | 134° |
| 2026-05-05 20:16 | 50.05122 | 1.01443 | 24309 ft | 395 kts | 148° |
| 2026-05-05 20:16 | 50.02656 | 1.03336 | 23784 ft | 395 kts | 154° |
| 2026-05-05 20:17 | 50.00156 | 1.05148 | 23139 ft | 397 kts | 154° |
| 2026-05-05 20:17 | 49.97659 | 1.06979 | 22466 ft | 398 kts | 154° |
| 2026-05-05 20:17 | 49.95156 | 1.08832 | 21804 ft | 398 kts | 154° |
| 2026-05-05 20:17 | 49.92660 | 1.10691 | 21156 ft | 397 kts | 153° |
| 2026-05-05 20:18 | 49.90188 | 1.12538 | 20508 ft | 392 kts | 153° |
| 2026-05-05 20:18 | 49.87752 | 1.14360 | 19881 ft | 387 kts | 153° |
| 2026-05-05 20:18 | 49.85342 | 1.16163 | 19266 ft | 382 kts | 153° |
| 2026-05-05 20:18 | 49.82961 | 1.17944 | 18665 ft | 378 kts | 153° |
| 2026-05-05 20:19 | 49.80632 | 1.19684 | 18068 ft | 374 kts | 153° |
| 2026-05-05 20:19 | 49.78299 | 1.21425 | 17400 ft | 371 kts | 153° |
| 2026-05-05 20:19 | 49.75988 | 1.23148 | 16743 ft | 367 kts | 153° |
| 2026-05-05 20:19 | 49.73698 | 1.24852 | 16100 ft | 364 kts | 153° |
| 2026-05-05 20:20 | 49.71429 | 1.26540 | 15469 ft | 360 kts | 153° |
| 2026-05-05 20:20 | 49.69187 | 1.28206 | 14848 ft | 356 kts | 153° |
| 2026-05-05 20:20 | 49.66961 | 1.29858 | 14239 ft | 353 kts | 153° |
| 2026-05-05 20:20 | 49.64757 | 1.31492 | 13635 ft | 350 kts | 152° |
| 2026-05-05 20:21 | 49.62597 | 1.33091 | 12975 ft | 347 kts | 152° |
| 2026-05-05 20:21 | 49.60426 | 1.34698 | 12326 ft | 345 kts | 152° |
| 2026-05-05 20:21 | 49.58268 | 1.36294 | 11692 ft | 343 kts | 152° |
| 2026-05-05 20:21 | 49.56118 | 1.37882 | 11059 ft | 343 kts | 152° |
| 2026-05-05 20:22 | 49.53954 | 1.39480 | 10445 ft | 347 kts | 152° |
| 2026-05-05 20:22 | 49.51778 | 1.41084 | 10079 ft | 343 kts | 152° |
| 2026-05-05 20:22 | 49.49656 | 1.42643 | 9958 ft | 333 kts | 152° |
| 2026-05-05 20:22 | 49.47563 | 1.44183 | 9902 ft | 334 kts | 152° |
| 2026-05-05 20:23 | 49.45477 | 1.45717 | 9885 ft | 331 kts | 152° |
| 2026-05-05 20:23 | 49.43402 | 1.47242 | 9880 ft | 331 kts | 152° |
| 2026-05-05 20:23 | 49.41325 | 1.48767 | 9884 ft | 332 kts | 152° |
| 2026-05-05 20:23 | 49.39234 | 1.50301 | 9887 ft | 334 kts | 152° |
| 2026-05-05 20:24 | 49.37136 | 1.51838 | 9883 ft | 335 kts | 152° |
| 2026-05-05 20:24 | 49.35032 | 1.53377 | 9879 ft | 335 kts | 152° |
| 2026-05-05 20:24 | 49.32930 | 1.54924 | 9875 ft | 335 kts | 149° |
| 2026-05-05 20:24 | 49.31140 | 1.57027 | 9869 ft | 326 kts | 126° |
| 2026-05-05 20:25 | 49.30054 | 1.60001 | 9877 ft | 318 kts | 106° |
| 2026-05-05 20:25 | 49.29652 | 1.63288 | 9877 ft | 313 kts | 91° |
| 2026-05-05 20:25 | 49.29520 | 1.66627 | 9869 ft | 314 kts | 90° |
| 2026-05-05 20:25 | 49.29398 | 1.69973 | 9865 ft | 315 kts | 90° |
| 2026-05-05 20:26 | 49.29023 | 1.73282 | 9850 ft | 320 kts | 110° |
| 2026-05-05 20:26 | 49.27785 | 1.76122 | 9696 ft | 327 kts | 133° |
| 2026-05-05 20:26 | 49.25867 | 1.78091 | 9158 ft | 338 kts | 152° |
| 2026-05-05 20:26 | 49.23714 | 1.79525 | 8629 ft | 338 kts | 155° |
| 2026-05-05 20:27 | 49.21579 | 1.80903 | 8131 ft | 337 kts | 155° |
| 2026-05-05 20:27 | 49.19424 | 1.82320 | 7622 ft | 337 kts | 154° |
| 2026-05-05 20:27 | 49.17337 | 1.83913 | 7108 ft | 334 kts | 145° |
| 2026-05-05 20:27 | 49.15415 | 1.85896 | 6629 ft | 333 kts | 142° |
| 2026-05-05 20:28 | 49.13527 | 1.87940 | 6130 ft | 332 kts | 142° |
| 2026-05-05 20:28 | 49.11660 | 1.89970 | 5605 ft | 326 kts | 142° |
| 2026-05-05 20:28 | 49.09832 | 1.91959 | 5098 ft | 320 kts | 142° |
| 2026-05-05 20:28 | 49.08034 | 1.93906 | 4604 ft | 314 kts | 141° |
| 2026-05-05 20:29 | 49.06288 | 1.95799 | 4168 ft | 309 kts | 142° |
| 2026-05-05 20:29 | 49.04594 | 1.97663 | 4041 ft | 291 kts | 135° |
| 2026-05-05 20:29 | 49.03319 | 1.99886 | 4028 ft | 267 kts | 123° |
| 2026-05-05 20:29 | 49.02259 | 2.02089 | 4007 ft | 249 kts | 122° |
| 2026-05-05 20:30 | 49.01274 | 2.04156 | 4015 ft | 236 kts | 122° |
| 2026-05-05 20:30 | 49.00343 | 2.06199 | 4016 ft | 232 kts | 113° |
| 2026-05-05 20:30 | 49.00073 | 2.08504 | 4032 ft | 219 kts | 77° |
| 2026-05-05 20:30 | 49.00332 | 2.10790 | 4035 ft | 221 kts | 79° |
| 2026-05-05 20:31 | 49.00489 | 2.13120 | 4045 ft | 221 kts | 82° |
| 2026-05-05 20:31 | 49.00607 | 2.15412 | 4044 ft | 220 kts | 82° |
| 2026-05-05 20:31 | 49.00722 | 2.17751 | 4042 ft | 224 kts | 82° |
| 2026-05-05 20:31 | 49.00837 | 2.20117 | 4036 ft | 224 kts | 83° |
| 2026-05-05 20:32 | 49.00955 | 2.22501 | 4024 ft | 227 kts | 83° |
| 2026-05-05 20:32 | 49.01073 | 2.24906 | 3947 ft | 229 kts | 83° |
| 2026-05-05 20:32 | 49.01194 | 2.27335 | 3674 ft | 231 kts | 82° |
| 2026-05-05 20:32 | 49.01312 | 2.29718 | 3377 ft | 218 kts | 82° |
| 2026-05-05 20:33 | 49.01422 | 2.31952 | 3104 ft | 205 kts | 82° |
| 2026-05-05 20:33 | 49.01527 | 2.34053 | 2835 ft | 193 kts | 81° |
| 2026-05-05 20:33 | 49.01628 | 2.36010 | 2584 ft | 182 kts | 81° |
| 2026-05-05 20:33 | 49.01723 | 2.37894 | 2335 ft | 174 kts | 80° |
| 2026-05-05 20:34 | 49.01814 | 2.39683 | 2104 ft | 165 kts | 80° |
| 2026-05-05 20:34 | 49.01899 | 2.41360 | 1890 ft | 153 kts | 79° |
| 2026-05-05 20:34 | 49.01980 | 2.42939 | 1726 ft | 147 kts | 78° |
| 2026-05-05 20:34 | 49.02060 | 2.44473 | 1503 ft | 141 kts | 78° |
| 2026-05-05 20:35 | 49.02133 | 2.45894 | 1309 ft | 130 kts | 78° |
| 2026-05-05 20:35 | 49.02205 | 2.47236 | 1089 ft | 125 kts | 81° |
| 2026-05-05 20:35 | 49.02271 | 2.48525 | 927 ft | 123 kts | 81° |
| 2026-05-05 20:35 | 49.02339 | 2.49814 | 767 ft | 122 kts | 80° |
| 2026-05-05 20:36 | 49.02406 | 2.51135 | 574 ft | 126 kts | 81° |
| 2026-05-05 20:36 | 49.02470 | 2.52455 | 377 ft | 123 kts | 79° |
| 2026-05-05 20:36 | 49.02537 | 2.53567 | 362 ft | 78 kts | 85° |
| 2026-05-05 20:36 | 49.02563 | 2.54140 | 353 ft | 44 kts | 87° |
| 2026-05-05 20:37 | 49.02546 | 2.54570 | 358 ft | 37 kts | 106° |
| 2026-05-05 20:37 | 49.02488 | 2.54891 | 357 ft | 19 kts | 105° |
| 2026-05-05 20:37 | 49.02474 | 2.54968 | 357 ft | 0 kts | 105° |
| 2026-05-05 20:39 | 49.02467 | 2.55005 | 353 ft | 11 kts | 105° |
| 2026-05-05 20:39 | 49.02447 | 2.55180 | 353 ft | 18 kts | 91° |
| 2026-05-05 20:39 | 49.02457 | 2.55371 | 353 ft | 18 kts | 84° |
| 2026-05-05 20:40 | 49.02456 | 2.55554 | 355 ft | 17 kts | 111° |
| 2026-05-05 20:40 | 49.02357 | 2.55621 | 353 ft | 17 kts | 175° |
| 2026-05-05 20:40 | 49.02246 | 2.55634 | 353 ft | 15 kts | 175° |
| 2026-05-05 20:40 | 49.02147 | 2.55646 | 353 ft | 14 kts | 175° |
| 2026-05-05 20:41 | 49.02046 | 2.55659 | 353 ft | 15 kts | 175° |
| 2026-05-05 20:41 | 49.01948 | 2.55671 | 356 ft | 14 kts | 178° |
| 2026-05-05 20:41 | 49.01887 | 2.55582 | 361 ft | 13 kts | 263° |
| 2026-05-05 20:41 | 49.01878 | 2.55445 | 353 ft | 13 kts | 265° |
| 2026-05-05 20:42 | 49.01872 | 2.55310 | 353 ft | 13 kts | 266° |
| 2026-05-05 20:42 | 49.01866 | 2.55180 | 357 ft | 12 kts | 266° |
| 2026-05-05 20:42 | 49.01859 | 2.55054 | 356 ft | 12 kts | 265° |
| 2026-05-05 20:42 | 49.01851 | 2.54930 | 353 ft | 12 kts | 264° |
| 2026-05-05 20:43 | 49.01844 | 2.54810 | 358 ft | 11 kts | 265° |
| 2026-05-05 20:43 | 49.01837 | 2.54692 | 353 ft | 11 kts | 267° |
| 2026-05-05 20:43 | 49.01833 | 2.54573 | 353 ft | 11 kts | 265° |
| 2026-05-05 20:43 | 49.01827 | 2.54456 | 358 ft | 11 kts | 265° |
| 2026-05-05 20:44 | 49.01817 | 2.54352 | 353 ft | 6 kts | 238° |
| 2026-05-05 20:44 | 49.01782 | 2.54333 | 353 ft | 6 kts | 189° |
| 2026-05-05 20:44 | 49.01719 | 2.54311 | 355 ft | 10 kts | 194° |
| 2026-05-05 20:44 | 49.01675 | 2.54292 | 361 ft | 0 kts | 196° |